Airfield :







YOU CAN JOIN US ON...

 
LOGIN :

Register | Disclaimer

   EN    FR    IT 

 









Legend :    VFR   Marginal VFR   IFR   Intensive IFR   Very Intensive IFR
Visi :
Ceiling :
>= 8 km
>= 3000ft
5 to 8 km
1000 to 3000 ft
1500m to 5 km
500 to 1000 ft
800 to 1500m
200 to 500 ft
< 800m
< 200 ft
Symbols :   Thunderstorms  Fog  Heavy snow  Heavy precipitations  Wind > 20 kt







- Airport Elevation : 199 ft
- IATA code : YRQ


CYRQ - Trois-Rivières

CURRENT METAR :
  • 191800Z AUTO 22009KT 9SM CLR 18/09 A3028 RMK SLP257 DENSITY ALT 200FT

EXPIRED METARs :
  • 191700Z AUTO 21009KT 9SM OVC042 18/08 A3029 RMK SLP260
  • 191600Z AUTO 19008KT 9SM OVC040 15/09 A3030 RMK SLP265

TAF AMD TAF CYRQ
Valid from the 19 at 14:00 until the 20 at 02:00 UTC


191421Z 1914/2002 VRB03KT P6SM FEW002
FM191600 20008KT P6SM FEW050 SCT250
FM200000 20007KT P6SM BKN180 RMK FCST BASED ON AUTO OBS. NXT FCST BY 192000Z
No reported NOTAMs for that airfield.



MET'MAP, your aeronautical weather chart ! - Copyright ORBIFLY December 2007 - Disclaimer

ORBIFLY MET'MAP TEAM :

Programming & Development : Alexandra Zaïnal
Concept & Development : Baudouin d'Aumeries
Co-Development & Prog : Marc-Olivier Méhu
Technical & hardware support : Manuel Goepfert

Contact : metmap@orbifly.com




SOURCES & CREDITS :

   NOAA